createdAt,value
2019-03-28T00:00:51.156Z,204.30
2019-03-28T00:05:54.844Z,319.03
2019-03-28T00:10:58.556Z,60.63
2019-03-28T00:16:02.388Z,221.50
2019-03-28T00:26:10.534Z,41.77
2019-03-28T00:31:14.455Z,23.60
2019-03-28T00:36:18.300Z,19.40
2019-03-28T00:41:21.965Z,16.43
2019-03-28T00:46:25.841Z,16.27
2019-03-28T00:51:29.547Z,15.13
2019-03-28T00:56:44.967Z,13.50
2019-03-28T01:01:38.710Z,14.45
2019-03-28T01:06:42.453Z,12.80
2019-03-28T01:16:51.540Z,12.70
2019-03-28T01:21:55.320Z,13.83
2019-03-28T01:26:59.292Z,15.27
2019-03-28T01:32:02.859Z,14.07
2019-03-28T01:37:06.575Z,13.10
2019-03-28T01:42:10.285Z,12.40
2019-03-28T01:47:13.988Z,11.60
2019-03-28T01:52:17.622Z,12.83
2019-03-28T01:57:21.353Z,12.37
2019-03-28T02:12:32.511Z,11.43
2019-03-28T02:17:47.287Z,9.73
2019-03-28T02:22:50.843Z,13.37
2019-03-28T02:27:54.482Z,10.87
2019-03-28T02:38:01.653Z,12.23
2019-03-28T02:43:05.743Z,11.17
2019-03-28T02:48:09.405Z,12.13
2019-03-28T02:58:17.500Z,12.47
2019-03-28T03:08:24.670Z,10.57
2019-03-28T03:13:28.405Z,12.00
2019-03-28T03:18:32.052Z,11.75
2019-03-28T03:23:35.646Z,10.53
2019-03-28T03:28:39.380Z,12.07
2019-03-28T03:33:43.826Z,12.50
2019-03-28T03:38:47.973Z,11.60
2019-03-28T03:43:51.614Z,9.87
2019-03-28T03:48:55.352Z,10.73
2019-03-28T03:53:58.977Z,10.30
2019-03-28T03:59:02.649Z,13.50
2019-03-28T04:04:06.335Z,9.50
2019-03-28T04:09:09.880Z,9.93
2019-03-28T04:14:13.607Z,12.43
2019-03-28T04:19:17.361Z,9.80
2019-03-28T04:24:21.825Z,8.90
2019-03-28T04:29:25.588Z,9.27
2019-03-28T04:34:29.281Z,10.07
2019-03-28T04:39:32.839Z,9.37
2019-03-28T04:44:36.474Z,8.23
2019-03-28T04:49:41.023Z,8.90
2019-03-28T04:54:44.641Z,8.10
2019-03-28T04:59:48.399Z,8.57
2019-03-28T05:04:52.033Z,8.10
2019-03-28T05:09:55.624Z,8.53
2019-03-28T05:14:59.310Z,7.50
2019-03-28T05:20:02.862Z,8.33
2019-03-28T05:25:06.489Z,8.60
2019-03-28T05:35:13.675Z,7.73
2019-03-28T05:40:17.405Z,7.53
2019-03-28T05:45:21.023Z,8.63
2019-03-28T05:50:24.616Z,7.30
2019-03-28T05:55:28.311Z,6.83
2019-03-28T06:00:31.968Z,7.17
2019-03-28T06:05:35.589Z,7.70
2019-03-28T06:10:40.291Z,7.30
2019-03-28T06:15:43.840Z,7.47
2019-03-28T06:20:47.475Z,8.17
2019-03-28T06:30:55.878Z,8.40
2019-03-28T06:36:02.121Z,7.30
2019-03-28T06:41:04.984Z,8.13
2019-03-28T06:46:08.617Z,7.20
2019-03-28T06:51:12.307Z,7.70
2019-03-28T06:56:17.430Z,7.70
2019-03-28T07:01:21.271Z,8.23
2019-03-28T07:06:24.849Z,8.60
2019-03-28T07:11:28.554Z,7.73
2019-03-28T07:16:32.399Z,8.67
2019-03-28T07:21:36.878Z,8.10
2019-03-28T07:26:40.514Z,8.23
2019-03-28T07:36:47.627Z,8.27
2019-03-28T07:41:51.326Z,8.67
2019-03-28T07:46:54.981Z,7.80
2019-03-28T07:51:58.630Z,7.83
2019-03-28T07:57:02.342Z,7.73
2019-03-28T08:02:06.011Z,7.80
2019-03-28T08:07:09.627Z,7.87
2019-03-28T08:12:22.334Z,8.57
2019-03-28T08:17:18.674Z,7.63
2019-03-28T08:22:43.295Z,8.45
2019-03-28T08:27:46.952Z,8.78
2019-03-28T08:32:50.702Z,11.97
2019-03-28T08:48:02.672Z,30.07
2019-03-28T08:53:08.779Z,24.67
2019-03-28T08:58:12.763Z,26.40
2019-03-28T09:03:16.693Z,19.40
2019-03-28T09:08:20.415Z,19.90
2019-03-28T09:13:24.335Z,15.67
2019-03-28T09:18:28.066Z,14.90
2019-03-28T09:23:31.719Z,13.17
2019-03-28T09:28:35.694Z,14.60
2019-03-28T09:33:40.943Z,12.93
2019-03-28T09:38:44.856Z,15.73
2019-03-28T09:43:55.305Z,14.57
2019-03-28T09:48:54.271Z,12.20
2019-03-28T09:53:57.862Z,12.97
2019-03-28T09:59:02.022Z,11.63
2019-03-28T10:04:06.604Z,12.20
2019-03-28T10:09:10.546Z,12.97
2019-03-28T10:14:14.282Z,13.57
2019-03-28T10:19:17.960Z,12.57
2019-03-28T10:24:21.714Z,12.77
2019-03-28T10:29:25.644Z,13.77
2019-03-28T10:34:29.274Z,14.33
2019-03-28T10:44:36.708Z,13.73
2019-03-28T10:49:41.472Z,13.20
2019-03-28T10:54:45.549Z,14.83
2019-03-28T10:59:49.288Z,13.53
2019-03-28T11:04:52.927Z,12.13
2019-03-28T11:09:56.614Z,12.47
2019-03-28T11:15:00.429Z,12.83
2019-03-28T11:25:07.754Z,12.83
2019-03-28T11:30:11.807Z,11.97
2019-03-28T11:35:15.725Z,12.77
2019-03-28T11:40:19.729Z,14.17
2019-03-28T11:45:26.938Z,12.20
2019-03-28T11:50:29.418Z,13.00
2019-03-28T12:00:36.648Z,13.83
2019-03-28T12:05:40.471Z,14.53
2019-03-28T12:15:47.711Z,13.80
2019-03-28T12:20:51.317Z,13.87
2019-03-28T12:25:55.015Z,13.68
2019-03-28T12:30:58.632Z,14.20
2019-03-28T12:41:06.394Z,13.83
2019-03-28T12:46:10.042Z,13.75
2019-03-28T12:51:13.731Z,14.07
2019-03-28T12:56:17.658Z,13.63
2019-03-28T13:01:21.537Z,13.25
2019-03-28T13:11:28.702Z,13.30
2019-03-28T13:16:32.738Z,13.22
2019-03-28T13:21:37.580Z,13.90
2019-03-28T13:26:41.393Z,12.73
2019-03-28T13:31:45.045Z,12.80
2019-03-28T13:36:48.721Z,13.50
2019-03-28T13:41:52.749Z,13.80
2019-03-28T13:51:59.787Z,11.85
2019-03-28T14:02:07.334Z,13.20
2019-03-28T14:07:11.006Z,11.65
2019-03-28T14:12:14.647Z,12.10
2019-03-28T14:17:20.571Z,12.93
2019-03-28T14:22:27.619Z,16.63
2019-03-28T14:27:46.808Z,344.43
2019-03-28T14:32:53.661Z,263.33
2019-03-28T14:42:59.798Z,514.65
2019-03-28T14:48:06.860Z,476.67
2019-03-28T14:53:09.898Z,456.60
2019-03-28T14:58:13.621Z,307.93
2019-03-28T15:08:22.374Z,292.35
2019-03-28T15:13:26.299Z,288.62
2019-03-28T15:18:31.030Z,376.07
2019-03-28T15:23:34.856Z,455.95
2019-03-28T15:28:38.678Z,403.50
2019-03-28T15:33:42.711Z,674.43
2019-03-28T15:38:46.525Z,649.13
2019-03-28T15:43:50.380Z,421.27
2019-03-28T15:53:57.504Z,184.63
2019-03-28T15:59:02.138Z,393.73
2019-03-28T16:04:13.131Z,498.17
2019-03-28T16:09:18.416Z,665.73
2019-03-28T16:14:22.174Z,514.17
2019-03-28T16:19:25.790Z,274.97
2019-03-28T16:24:29.823Z,381.80
2019-03-28T16:29:33.930Z,585.03
2019-03-28T16:34:37.987Z,501.00
2019-03-28T16:39:41.690Z,546.80
2019-03-28T16:44:45.708Z,616.17
2019-03-28T16:49:49.941Z,640.00
2019-03-28T16:54:53.685Z,720.60
2019-03-28T16:59:57.610Z,790.83
2019-03-28T17:05:05.729Z,603.37
2019-03-28T17:10:09.814Z,645.50
2019-03-28T17:15:13.625Z,720.57
2019-03-28T17:20:17.445Z,809.37
2019-03-28T17:25:21.648Z,624.43
2019-03-28T17:30:26.243Z,518.55
2019-03-28T17:35:30.953Z,423.43
2019-03-28T17:40:36.777Z,279.30
2019-03-28T17:45:40.134Z,210.80
2019-03-28T17:50:43.984Z,577.07
2019-03-28T17:55:47.769Z,481.00
2019-03-28T18:00:51.810Z,442.50
2019-03-28T18:05:58.803Z,934.13
2019-03-28T18:16:10.427Z,722.80
2019-03-28T18:21:16.224Z,769.67
2019-03-28T18:26:21.883Z,464.47
2019-03-28T18:31:27.634Z,227.93
2019-03-28T18:36:33.502Z,100.12
2019-03-28T18:41:39.289Z,55.03
2019-03-28T18:46:44.837Z,38.63
2019-03-28T18:51:50.494Z,26.83
2019-03-28T19:02:01.776Z,20.37
2019-03-28T19:07:07.690Z,21.43
2019-03-28T19:12:13.456Z,19.43
2019-03-28T19:17:19.278Z,18.82
2019-03-28T19:22:24.959Z,18.57
2019-03-28T19:27:30.666Z,17.83
2019-03-28T19:32:36.339Z,16.62
2019-03-28T19:37:42.395Z,15.80
2019-03-28T19:47:54.032Z,73.80
2019-03-28T19:53:00.118Z,142.20
2019-03-28T19:58:05.756Z,182.93
2019-03-28T20:08:18.380Z,531.67
2019-03-28T20:13:24.591Z,357.73
2019-03-28T20:18:31.680Z,685.17
2019-03-28T20:23:37.459Z,843.40
2019-03-28T20:28:59.105Z,902.20
2019-03-28T20:34:04.862Z,745.10
2019-03-28T20:39:12.269Z,786.10
2019-03-28T20:44:18.210Z,805.87
2019-03-28T20:49:25.834Z,690.43
2019-03-28T20:54:32.184Z,921.27
2019-03-28T20:59:37.878Z,902.57
2019-03-28T21:09:49.719Z,820.37
2019-03-28T21:14:55.589Z,891.23
2019-03-28T21:20:01.398Z,709.20
2019-03-28T21:25:07.105Z,769.20
2019-03-28T21:30:12.804Z,754.43
2019-03-28T21:35:18.789Z,858.87
2019-03-28T21:40:25.075Z,907.47
2019-03-28T21:45:31.862Z,926.67
2019-03-28T21:50:42.033Z,900.10
2019-03-28T21:55:55.114Z,1082.63
2019-03-28T22:00:57.381Z,909.43
2019-03-28T22:06:02.903Z,699.17
2019-03-28T22:11:08.642Z,629.77
2019-03-28T22:16:14.496Z,510.70
2019-03-28T22:21:19.905Z,564.93
2019-03-28T22:26:25.866Z,823.10
2019-03-28T22:31:31.749Z,777.73
2019-03-28T22:36:38.505Z,930.03
2019-03-28T22:41:44.501Z,806.85
2019-03-28T22:51:57.237Z,1253.17
2019-03-28T22:57:04.736Z,1067.00
2019-03-28T23:02:11.129Z,880.33
2019-03-28T23:07:16.781Z,987.00
2019-03-28T23:12:22.750Z,1124.73
2019-03-28T23:17:28.974Z,1087.00
2019-03-28T23:22:35.220Z,1098.58
2019-03-28T23:27:40.902Z,1439.68
2019-03-28T23:37:53.156Z,1398.80
2019-03-28T23:43:00.605Z,1345.07
2019-03-28T23:48:06.920Z,1508.00
2019-03-28T23:53:12.667Z,1662.00
2019-03-28T23:58:18.533Z,1634.80
